CheckWX is a tool to help pilots better visualize weather data.  It is not intended as a substitute for an official pre-flight weather briefing.

23:46:09 UTC

KAGC TAF
Allegheny County Airport
Pittsburgh, Pennsylvania, USA
KAGC 182320Z 1900/1924 VRB03KT P6SM SCT250 TEMPO 1908/1912 3SM BR SCT001

Oct-19@
00:00 UTC

Oct-19 @ 00:00 UTC

Oct-20@
00:00 UTC

Oct-20 @ 00:00 UTC

KAGC 182320Z 1900/1924 VRB03KT P6SM SCT250
Wind
  • Variable at 3 KTS
Cloud Levels
  • Scattered at 25,000' AGL

Oct-19@
08:00 UTC

Oct-19 @ 08:00 UTC

Oct-19@
12:00 UTC

Oct-19 @ 12:00 UTC

TEMPO 1908/1912 3SM BR SCT001

Temporary

Temporary Changes expected for less than half the time period

Conditions
Mist
Cloud Levels
  • Scattered at 100' AGL